logo
Search for airport 
image banner adimage banner adimage banner ad
image banner ad

SJUI - Fazenda Uirapuru

Located in Araguanã, Brazil

ICAO - SJUI, IATA -

Data provided by Airmate  

General information

Coordinates: S6°51'25" W48°26'24"
Elevation is 679 feet MSL.
Magnetic variation is -21° East
View others Airports in Tocatins

Operational data

Special qualification required
Current time UTC:
Current local time:
Weather at : - ( 0 km )
METAR: KAUM 140456Z AUTO 22007KT 10SM CLR 18/09 A2966 RMK AO2
View NOTAMs / SUP AIP / TFR affecting this airport [VIEW]
Communications frequencies: [VIEW]

Runways:

RWY identifierQFULength (ft)Width (ft)SurfaceLDA (ft)
04328159GRAVEL
22328159GRAVEL

Airport contact information

Address: Araguanã Brazil

Satellite view of SJUI